sensor_id;sensor_type;location;lat;lon;timestamp;temperature;humidity
9975;DHT22;5028;50.974;4.968;2023-02-10T00:00:19;3.90;99.90
9975;DHT22;5028;50.974;4.968;2023-02-10T00:02:54;4.00;99.90
9975;DHT22;5028;50.974;4.968;2023-02-10T00:05:22;4.00;99.90
9975;DHT22;5028;50.974;4.968;2023-02-10T00:07:58;4.10;99.90
9975;DHT22;5028;50.974;4.968;2023-02-10T00:10:39;4.10;99.90
9975;DHT22;5028;50.974;4.968;2023-02-10T00:13:15;4.10;99.90
9975;DHT22;5028;50.974;4.968;2023-02-10T00:15:43;4.10;99.90
9975;DHT22;5028;50.974;4.968;2023-02-10T00:18:20;4.20;99.90
9975;DHT22;5028;50.974;4.968;2023-02-10T00:20:48;4.20;99.90
9975;DHT22;5028;50.974;4.968;2023-02-10T00:23:24;4.20;99.90
9975;DHT22;5028;50.974;4.968;2023-02-10T00:25:52;4.30;99.90
9975;DHT22;5028;50.974;4.968;2023-02-10T00:28:27;4.30;99.90
9975;DHT22;5028;50.974;4.968;2023-02-10T00:30:55;4.30;99.90
9975;DHT22;5028;50.974;4.968;2023-02-10T00:33:30;4.30;99.90
9975;DHT22;5028;50.974;4.968;2023-02-10T00:35:58;4.40;99.90
9975;DHT22;5028;50.974;4.968;2023-02-10T00:38:34;4.40;99.90
9975;DHT22;5028;50.974;4.968;2023-02-10T00:41:03;4.30;99.90
9975;DHT22;5028;50.974;4.968;2023-02-10T00:43:39;4.40;99.90
9975;DHT22;5028;50.974;4.968;2023-02-10T00:46:09;4.40;99.90
9975;DHT22;5028;50.974;4.968;2023-02-10T00:48:44;4.40;99.90
9975;DHT22;5028;50.974;4.968;2023-02-10T00:51:13;4.40;99.90
9975;DHT22;5028;50.974;4.968;2023-02-10T00:53:50;4.40;99.90
9975;DHT22;5028;50.974;4.968;2023-02-10T00:56:20;4.40;99.90
9975;DHT22;5028;50.974;4.968;2023-02-10T00:58:55;4.40;99.90
9975;DHT22;5028;50.974;4.968;2023-02-10T01:01:23;4.40;99.90
9975;DHT22;5028;50.974;4.968;2023-02-10T01:03:58;4.40;99.90
9975;DHT22;5028;50.974;4.968;2023-02-10T01:06:26;4.40;99.90
9975;DHT22;5028;50.974;4.968;2023-02-10T01:09:03;4.40;99.90
9975;DHT22;5028;50.974;4.968;2023-02-10T01:11:38;4.40;99.90
9975;DHT22;5028;50.974;4.968;2023-02-10T01:14:13;4.40;99.90
9975;DHT22;5028;50.974;4.968;2023-02-10T01:16:42;4.50;99.90
9975;DHT22;5028;50.974;4.968;2023-02-10T01:19:17;4.50;99.90
9975;DHT22;5028;50.974;4.968;2023-02-10T01:21:45;4.50;99.90
9975;DHT22;5028;50.974;4.968;2023-02-10T01:24:21;4.50;99.90
9975;DHT22;5028;50.974;4.968;2023-02-10T01:26:49;4.40;99.90
9975;DHT22;5028;50.974;4.968;2023-02-10T01:29:24;4.40;99.90
9975;DHT22;5028;50.974;4.968;2023-02-10T01:31:52;4.40;99.90
9975;DHT22;5028;50.974;4.968;2023-02-10T01:34:27;4.40;99.90
9975;DHT22;5028;50.974;4.968;2023-02-10T01:36:55;4.40;99.90
9975;DHT22;5028;50.974;4.968;2023-02-10T01:39:31;4.40;99.90
9975;DHT22;5028;50.974;4.968;2023-02-10T01:42:00;4.40;99.90
9975;DHT22;5028;50.974;4.968;2023-02-10T01:47:47;4.40;99.90
9975;DHT22;5028;50.974;4.968;2023-02-10T01:50:26;4.40;99.90
9975;DHT22;5028;50.974;4.968;2023-02-10T01:53:02;4.40;99.90
9975;DHT22;5028;50.974;4.968;2023-02-10T01:55:33;4.40;99.90
9975;DHT22;5028;50.974;4.968;2023-02-10T01:58:10;4.30;99.90
9975;DHT22;5028;50.974;4.968;2023-02-10T02:00:39;4.30;99.90
9975;DHT22;5028;50.974;4.968;2023-02-10T02:03:15;4.30;99.90
9975;DHT22;5028;50.974;4.968;2023-02-10T02:05:43;4.30;99.90
9975;DHT22;5028;50.974;4.968;2023-02-10T02:08:27;4.20;99.90
9975;DHT22;5028;50.974;4.968;2023-02-10T02:11:07;4.20;99.90
9975;DHT22;5028;50.974;4.968;2023-02-10T02:14:00;4.20;99.90
9975;DHT22;5028;50.974;4.968;2023-02-10T02:16:43;4.20;99.90
9975;DHT22;5028;50.974;4.968;2023-02-10T02:22:52;4.20;99.90
9975;DHT22;5028;50.974;4.968;2023-02-10T02:25:47;4.20;99.90
9975;DHT22;5028;50.974;4.968;2023-02-10T02:28:28;4.20;99.90
9975;DHT22;5028;50.974;4.968;2023-02-10T02:31:45;4.10;99.90
9975;DHT22;5028;50.974;4.968;2023-02-10T02:34:22;4.10;99.90
9975;DHT22;5028;50.974;4.968;2023-02-10T02:37:02;4.10;99.90
9975;DHT22;5028;50.974;4.968;2023-02-10T02:39:32;4.00;99.90
9975;DHT22;5028;50.974;4.968;2023-02-10T02:42:19;4.00;99.90
9975;DHT22;5028;50.974;4.968;2023-02-10T02:44:50;3.90;99.90
9975;DHT22;5028;50.974;4.968;2023-02-10T02:47:53;3.90;99.90
9975;DHT22;5028;50.974;4.968;2023-02-10T02:50:25;3.80;99.90
9975;DHT22;5028;50.974;4.968;2023-02-10T02:53:12;3.80;99.90
9975;DHT22;5028;50.974;4.968;2023-02-10T02:55:51;3.70;99.90
9975;DHT22;5028;50.974;4.968;2023-02-10T02:58:33;3.70;99.90
9975;DHT22;5028;50.974;4.968;2023-02-10T03:01:06;3.60;99.90
9975;DHT22;5028;50.974;4.968;2023-02-10T03:03:43;3.50;99.90
9975;DHT22;5028;50.974;4.968;2023-02-10T03:06:14;3.40;99.90
9975;DHT22;5028;50.974;4.968;2023-02-10T03:09:03;3.40;99.90
9975;DHT22;5028;50.974;4.968;2023-02-10T03:11:31;3.30;99.90
9975;DHT22;5028;50.974;4.968;2023-02-10T03:14:06;3.30;99.90
9975;DHT22;5028;50.974;4.968;2023-02-10T03:16:34;3.20;99.90
9975;DHT22;5028;50.974;4.968;2023-02-10T03:19:10;3.20;99.90
9975;DHT22;5028;50.974;4.968;2023-02-10T03:21:38;3.10;99.90
9975;DHT22;5028;50.974;4.968;2023-02-10T03:24:14;3.10;99.90
9975;DHT22;5028;50.974;4.968;2023-02-10T03:26:43;3.00;99.90
9975;DHT22;5028;50.974;4.968;2023-02-10T03:29:18;3.00;99.90
9975;DHT22;5028;50.974;4.968;2023-02-10T03:31:46;2.90;99.90
9975;DHT22;5028;50.974;4.968;2023-02-10T03:34:22;2.90;99.90
9975;DHT22;5028;50.974;4.968;2023-02-10T03:36:50;2.90;99.90
9975;DHT22;5028;50.974;4.968;2023-02-10T03:39:25;2.80;99.90
9975;DHT22;5028;50.974;4.968;2023-02-10T03:41:53;2.80;99.90
9975;DHT22;5028;50.974;4.968;2023-02-10T03:44:28;2.70;99.90
9975;DHT22;5028;50.974;4.968;2023-02-10T03:46:56;2.70;99.90
9975;DHT22;5028;50.974;4.968;2023-02-10T03:49:32;2.60;99.90
9975;DHT22;5028;50.974;4.968;2023-02-10T03:52:00;2.60;99.90
9975;DHT22;5028;50.974;4.968;2023-02-10T03:54:35;2.60;99.90
9975;DHT22;5028;50.974;4.968;2023-02-10T03:57:03;2.50;99.90
9975;DHT22;5028;50.974;4.968;2023-02-10T03:59:39;2.50;99.90
9975;DHT22;5028;50.974;4.968;2023-02-10T04:02:07;2.40;99.90
9975;DHT22;5028;50.974;4.968;2023-02-10T04:04:43;2.40;99.90
9975;DHT22;5028;50.974;4.968;2023-02-10T04:07:11;2.40;99.90
9975;DHT22;5028;50.974;4.968;2023-02-10T04:09:59;2.40;99.90
9975;DHT22;5028;50.974;4.968;2023-02-10T04:12:28;2.40;99.90
9975;DHT22;5028;50.974;4.968;2023-02-10T04:15:04;2.30;99.90
9975;DHT22;5028;50.974;4.968;2023-02-10T04:17:32;2.30;99.90
9975;DHT22;5028;50.974;4.968;2023-02-10T04:20:10;2.30;99.90
9975;DHT22;5028;50.974;4.968;2023-02-10T04:22:38;2.20;99.90
9975;DHT22;5028;50.974;4.968;2023-02-10T04:25:13;2.30;99.90
9975;DHT22;5028;50.974;4.968;2023-02-10T04:27:41;2.20;99.90
9975;DHT22;5028;50.974;4.968;2023-02-10T04:30:16;2.20;99.90
9975;DHT22;5028;50.974;4.968;2023-02-10T04:32:44;2.20;99.90
9975;DHT22;5028;50.974;4.968;2023-02-10T04:35:20;2.10;99.90
9975;DHT22;5028;50.974;4.968;2023-02-10T04:37:49;2.10;99.90
9975;DHT22;5028;50.974;4.968;2023-02-10T04:40:24;2.10;99.90
9975;DHT22;5028;50.974;4.968;2023-02-10T04:42:52;2.10;99.90
9975;DHT22;5028;50.974;4.968;2023-02-10T04:45:27;2.10;99.90
9975;DHT22;5028;50.974;4.968;2023-02-10T04:47:55;2.00;99.90
9975;DHT22;5028;50.974;4.968;2023-02-10T04:50:32;2.00;99.90
9975;DHT22;5028;50.974;4.968;2023-02-10T04:53:00;2.00;99.90
9975;DHT22;5028;50.974;4.968;2023-02-10T04:55:35;1.90;99.90
9975;DHT22;5028;50.974;4.968;2023-02-10T04:58:03;1.90;99.90
9975;DHT22;5028;50.974;4.968;2023-02-10T05:00:38;1.90;99.90
9975;DHT22;5028;50.974;4.968;2023-02-10T05:03:06;1.90;99.90
9975;DHT22;5028;50.974;4.968;2023-02-10T05:05:42;1.90;99.90
9975;DHT22;5028;50.974;4.968;2023-02-10T05:08:12;1.90;99.90
9975;DHT22;5028;50.974;4.968;2023-02-10T05:11:03;1.90;99.90
9975;DHT22;5028;50.974;4.968;2023-02-10T05:13:31;1.90;99.90
9975;DHT22;5028;50.974;4.968;2023-02-10T05:16:06;1.90;99.90
9975;DHT22;5028;50.974;4.968;2023-02-10T05:18:35;1.90;99.90
9975;DHT22;5028;50.974;4.968;2023-02-10T05:21:12;1.90;99.90
9975;DHT22;5028;50.974;4.968;2023-02-10T05:23:41;1.90;99.90
9975;DHT22;5028;50.974;4.968;2023-02-10T05:26:16;1.90;99.90
9975;DHT22;5028;50.974;4.968;2023-02-10T05:28:44;2.00;99.90
9975;DHT22;5028;50.974;4.968;2023-02-10T05:31:19;2.00;99.90
9975;DHT22;5028;50.974;4.968;2023-02-10T05:33:47;2.00;99.90
9975;DHT22;5028;50.974;4.968;2023-02-10T05:36:23;2.00;99.90
9975;DHT22;5028;50.974;4.968;2023-02-10T05:38:54;2.00;99.90
9975;DHT22;5028;50.974;4.968;2023-02-10T05:41:46;2.00;99.90
9975;DHT22;5028;50.974;4.968;2023-02-10T05:44:14;2.00;99.90
9975;DHT22;5028;50.974;4.968;2023-02-10T05:46:49;2.00;99.90
9975;DHT22;5028;50.974;4.968;2023-02-10T05:49:18;2.00;99.90
9975;DHT22;5028;50.974;4.968;2023-02-10T05:51:54;1.90;99.90
9975;DHT22;5028;50.974;4.968;2023-02-10T05:54:22;1.90;99.90
9975;DHT22;5028;50.974;4.968;2023-02-10T05:56:57;1.90;99.90
9975;DHT22;5028;50.974;4.968;2023-02-10T05:59:26;1.90;99.90
9975;DHT22;5028;50.974;4.968;2023-02-10T06:02:03;1.90;99.90
9975;DHT22;5028;50.974;4.968;2023-02-10T06:04:31;1.90;99.90
9975;DHT22;5028;50.974;4.968;2023-02-10T06:07:07;1.90;99.90
9975;DHT22;5028;50.974;4.968;2023-02-10T06:09:49;1.90;99.90
9975;DHT22;5028;50.974;4.968;2023-02-10T06:12:23;1.90;99.90
9975;DHT22;5028;50.974;4.968;2023-02-10T06:14:51;1.90;99.90
9975;DHT22;5028;50.974;4.968;2023-02-10T06:17:26;1.90;99.90
9975;DHT22;5028;50.974;4.968;2023-02-10T06:19:54;1.90;99.90
9975;DHT22;5028;50.974;4.968;2023-02-10T06:22:30;1.80;99.90
9975;DHT22;5028;50.974;4.968;2023-02-10T06:25:05;1.80;99.90
9975;DHT22;5028;50.974;4.968;2023-02-10T06:27:33;1.80;99.90
9975;DHT22;5028;50.974;4.968;2023-02-10T06:30:09;1.80;99.90
9975;DHT22;5028;50.974;4.968;2023-02-10T06:32:37;1.80;99.90
9975;DHT22;5028;50.974;4.968;2023-02-10T06:35:12;1.90;99.90
9975;DHT22;5028;50.974;4.968;2023-02-10T06:37:42;1.80;99.90
9975;DHT22;5028;50.974;4.968;2023-02-10T06:40:17;1.90;99.90
9975;DHT22;5028;50.974;4.968;2023-02-10T06:42:45;1.80;99.90
9975;DHT22;5028;50.974;4.968;2023-02-10T06:45:20;1.90;99.90
9975;DHT22;5028;50.974;4.968;2023-02-10T06:47:48;1.90;99.90
9975;DHT22;5028;50.974;4.968;2023-02-10T06:50:23;1.80;99.90
9975;DHT22;5028;50.974;4.968;2023-02-10T06:52:52;1.80;99.90
9975;DHT22;5028;50.974;4.968;2023-02-10T06:55:27;1.80;99.90
9975;DHT22;5028;50.974;4.968;2023-02-10T06:57:58;1.80;99.90
9975;DHT22;5028;50.974;4.968;2023-02-10T07:00:33;1.80;99.90
9975;DHT22;5028;50.974;4.968;2023-02-10T07:03:01;1.80;99.90
9975;DHT22;5028;50.974;4.968;2023-02-10T07:05:36;1.80;99.90
9975;DHT22;5028;50.974;4.968;2023-02-10T07:08:06;1.80;99.90
9975;DHT22;5028;50.974;4.968;2023-02-10T07:10:55;1.80;99.90
9975;DHT22;5028;50.974;4.968;2023-02-10T07:13:23;1.80;99.90
9975;DHT22;5028;50.974;4.968;2023-02-10T07:15:58;1.80;99.90
9975;DHT22;5028;50.974;4.968;2023-02-10T07:18:27;1.80;99.90
9975;DHT22;5028;50.974;4.968;2023-02-10T07:21:03;1.80;99.90
9975;DHT22;5028;50.974;4.968;2023-02-10T07:23:33;1.80;99.90
9975;DHT22;5028;50.974;4.968;2023-02-10T07:26:09;1.80;99.90
9975;DHT22;5028;50.974;4.968;2023-02-10T07:28:38;1.80;99.90
9975;DHT22;5028;50.974;4.968;2023-02-10T07:31:13;1.90;99.90
9975;DHT22;5028;50.974;4.968;2023-02-10T07:33:41;1.90;99.90
9975;DHT22;5028;50.974;4.968;2023-02-10T07:36:16;1.90;99.90
9975;DHT22;5028;50.974;4.968;2023-02-10T07:38:45;2.00;99.90
9975;DHT22;5028;50.974;4.968;2023-02-10T07:41:20;1.90;99.90
9975;DHT22;5028;50.974;4.968;2023-02-10T07:43:48;2.00;99.90
9975;DHT22;5028;50.974;4.968;2023-02-10T07:46:23;1.90;99.90
9975;DHT22;5028;50.974;4.968;2023-02-10T07:48:51;1.90;99.90
9975;DHT22;5028;50.974;4.968;2023-02-10T07:51:26;2.00;99.90
9975;DHT22;5028;50.974;4.968;2023-02-10T07:53:56;2.00;99.90
9975;DHT22;5028;50.974;4.968;2023-02-10T07:56:30;2.00;99.90
9975;DHT22;5028;50.974;4.968;2023-02-10T07:58:58;2.00;99.90
9975;DHT22;5028;50.974;4.968;2023-02-10T08:01:34;2.00;99.90
9975;DHT22;5028;50.974;4.968;2023-02-10T08:04:04;2.10;99.90
9975;DHT22;5028;50.974;4.968;2023-02-10T08:06:39;2.10;99.90
9975;DHT22;5028;50.974;4.968;2023-02-10T08:09:22;2.10;99.90
9975;DHT22;5028;50.974;4.968;2023-02-10T08:11:57;2.20;99.90
9975;DHT22;5028;50.974;4.968;2023-02-10T08:14:26;2.20;99.90
9975;DHT22;5028;50.974;4.968;2023-02-10T08:17:00;2.30;99.90
9975;DHT22;5028;50.974;4.968;2023-02-10T08:19:29;2.30;99.90
9975;DHT22;5028;50.974;4.968;2023-02-10T08:22:03;2.30;99.90
9975;DHT22;5028;50.974;4.968;2023-02-10T08:24:33;2.40;99.90
9975;DHT22;5028;50.974;4.968;2023-02-10T08:27:07;2.40;99.90
9975;DHT22;5028;50.974;4.968;2023-02-10T08:29:38;2.50;99.90
9975;DHT22;5028;50.974;4.968;2023-02-10T08:32:13;2.60;99.90
9975;DHT22;5028;50.974;4.968;2023-02-10T08:34:45;2.50;99.90
9975;DHT22;5028;50.974;4.968;2023-02-10T08:37:20;2.50;99.90
9975;DHT22;5028;50.974;4.968;2023-02-10T08:39:49;2.50;99.90
9975;DHT22;5028;50.974;4.968;2023-02-10T08:42:24;2.50;99.90
9975;DHT22;5028;50.974;4.968;2023-02-10T08:44:52;2.50;99.90
9975;DHT22;5028;50.974;4.968;2023-02-10T08:47:27;2.60;99.90
9975;DHT22;5028;50.974;4.968;2023-02-10T08:49:55;2.60;99.90
9975;DHT22;5028;50.974;4.968;2023-02-10T08:52:30;2.70;99.90
9975;DHT22;5028;50.974;4.968;2023-02-10T08:54:59;2.70;99.90
9975;DHT22;5028;50.974;4.968;2023-02-10T08:57:35;2.80;99.90
9975;DHT22;5028;50.974;4.968;2023-02-10T09:00:04;2.80;99.90
9975;DHT22;5028;50.974;4.968;2023-02-10T09:02:40;2.80;99.90
9975;DHT22;5028;50.974;4.968;2023-02-10T09:05:08;2.90;99.90
9975;DHT22;5028;50.974;4.968;2023-02-10T09:07:43;2.90;99.90
9975;DHT22;5028;50.974;4.968;2023-02-10T09:10:25;3.00;99.90
9975;DHT22;5028;50.974;4.968;2023-02-10T09:13:00;3.00;99.90
9975;DHT22;5028;50.974;4.968;2023-02-10T09:15:28;3.10;99.90
9975;DHT22;5028;50.974;4.968;2023-02-10T09:18:03;3.10;99.90
9975;DHT22;5028;50.974;4.968;2023-02-10T09:20:32;3.20;99.90
9975;DHT22;5028;50.974;4.968;2023-02-10T09:23:07;3.30;99.90
9975;DHT22;5028;50.974;4.968;2023-02-10T09:25:36;3.40;99.90
9975;DHT22;5028;50.974;4.968;2023-02-10T09:28:11;3.50;99.90
9975;DHT22;5028;50.974;4.968;2023-02-10T09:30:39;3.60;99.90
9975;DHT22;5028;50.974;4.968;2023-02-10T09:33:14;3.70;99.90
9975;DHT22;5028;50.974;4.968;2023-02-10T09:35:42;3.80;99.90
9975;DHT22;5028;50.974;4.968;2023-02-10T09:38:17;3.90;99.90
9975;DHT22;5028;50.974;4.968;2023-02-10T09:40:52;4.00;99.90
9975;DHT22;5028;50.974;4.968;2023-02-10T09:43:53;4.10;99.90
9975;DHT22;5028;50.974;4.968;2023-02-10T09:46:30;4.30;99.90
9975;DHT22;5028;50.974;4.968;2023-02-10T09:49:17;4.40;99.90
9975;DHT22;5028;50.974;4.968;2023-02-10T09:51:59;4.50;99.90
9975;DHT22;5028;50.974;4.968;2023-02-10T09:54:36;4.60;99.90
9975;DHT22;5028;50.974;4.968;2023-02-10T09:57:11;4.70;99.90
9975;DHT22;5028;50.974;4.968;2023-02-10T09:59:50;4.70;99.90
9975;DHT22;5028;50.974;4.968;2023-02-10T10:02:24;4.70;99.90
9975;DHT22;5028;50.974;4.968;2023-02-10T10:05:05;4.90;99.90
9975;DHT22;5028;50.974;4.968;2023-02-10T10:07:40;4.90;99.90
9975;DHT22;5028;50.974;4.968;2023-02-10T10:10:22;5.10;99.90
9975;DHT22;5028;50.974;4.968;2023-02-10T10:13:00;5.10;99.90
9975;DHT22;5028;50.974;4.968;2023-02-10T10:15:38;5.30;99.90
9975;DHT22;5028;50.974;4.968;2023-02-10T10:18:14;5.40;99.90
9975;DHT22;5028;50.974;4.968;2023-02-10T10:20:57;5.60;99.90
9975;DHT22;5028;50.974;4.968;2023-02-10T10:23:38;5.70;99.90
9975;DHT22;5028;50.974;4.968;2023-02-10T10:26:27;5.70;99.90
9975;DHT22;5028;50.974;4.968;2023-02-10T10:29:13;5.70;99.90
9975;DHT22;5028;50.974;4.968;2023-02-10T10:31:59;5.80;99.90
9975;DHT22;5028;50.974;4.968;2023-02-10T10:34:37;5.80;99.90
9975;DHT22;5028;50.974;4.968;2023-02-10T10:37:15;5.80;99.90
9975;DHT22;5028;50.974;4.968;2023-02-10T10:39:46;5.90;99.90
9975;DHT22;5028;50.974;4.968;2023-02-10T10:42:26;6.00;99.90
9975;DHT22;5028;50.974;4.968;2023-02-10T10:45:04;6.10;99.90
9975;DHT22;5028;50.974;4.968;2023-02-10T10:47:44;6.20;99.90
9975;DHT22;5028;50.974;4.968;2023-02-10T10:50:15;6.40;99.90
9975;DHT22;5028;50.974;4.968;2023-02-10T10:52:52;6.60;99.90
9975;DHT22;5028;50.974;4.968;2023-02-10T10:55:24;6.80;99.90
9975;DHT22;5028;50.974;4.968;2023-02-10T10:58:03;7.00;99.90
9975;DHT22;5028;50.974;4.968;2023-02-10T11:00:37;7.20;99.90
9975;DHT22;5028;50.974;4.968;2023-02-10T11:03:15;7.30;99.90
9975;DHT22;5028;50.974;4.968;2023-02-10T11:05:57;7.50;99.90
9975;DHT22;5028;50.974;4.968;2023-02-10T11:08:42;7.50;99.90
9975;DHT22;5028;50.974;4.968;2023-02-10T11:11:31;7.60;99.90
9975;DHT22;5028;50.974;4.968;2023-02-10T11:14:14;7.70;99.90
9975;DHT22;5028;50.974;4.968;2023-02-10T11:16:47;7.70;99.90
9975;DHT22;5028;50.974;4.968;2023-02-10T11:19:24;7.90;99.90
9975;DHT22;5028;50.974;4.968;2023-02-10T11:21:55;7.90;99.90
9975;DHT22;5028;50.974;4.968;2023-02-10T11:24:32;8.00;99.90
9975;DHT22;5028;50.974;4.968;2023-02-10T11:27:02;8.20;99.90
9975;DHT22;5028;50.974;4.968;2023-02-10T11:29:46;8.30;99.90
9975;DHT22;5028;50.974;4.968;2023-02-10T11:32:21;8.50;99.90
9975;DHT22;5028;50.974;4.968;2023-02-10T11:34:58;8.70;99.90
9975;DHT22;5028;50.974;4.968;2023-02-10T11:37:28;8.90;99.90
9975;DHT22;5028;50.974;4.968;2023-02-10T11:40:14;9.10;99.90
9975;DHT22;5028;50.974;4.968;2023-02-10T11:42:46;9.30;99.90
9975;DHT22;5028;50.974;4.968;2023-02-10T11:45:24;9.20;99.90
9975;DHT22;5028;50.974;4.968;2023-02-10T11:48:05;9.30;99.90
9975;DHT22;5028;50.974;4.968;2023-02-10T11:50:40;9.40;99.90
9975;DHT22;5028;50.974;4.968;2023-02-10T11:53:18;9.30;99.90
9975;DHT22;5028;50.974;4.968;2023-02-10T11:56:01;9.40;99.90
9975;DHT22;5028;50.974;4.968;2023-02-10T11:58:52;9.50;99.90
9975;DHT22;5028;50.974;4.968;2023-02-10T12:01:50;9.70;99.90
9975;DHT22;5028;50.974;4.968;2023-02-10T12:04:44;9.80;99.90
9975;DHT22;5028;50.974;4.968;2023-02-10T12:07:23;9.90;99.90
9975;DHT22;5028;50.974;4.968;2023-02-10T12:10:13;10.00;99.90
9975;DHT22;5028;50.974;4.968;2023-02-10T12:12:49;10.30;99.90
9975;DHT22;5028;50.974;4.968;2023-02-10T12:15:36;10.50;99.90
9975;DHT22;5028;50.974;4.968;2023-02-10T12:18:17;10.40;99.90
9975;DHT22;5028;50.974;4.968;2023-02-10T12:21:07;10.30;99.90
9975;DHT22;5028;50.974;4.968;2023-02-10T12:23:50;10.40;99.90
9975;DHT22;5028;50.974;4.968;2023-02-10T12:26:37;10.30;99.90
9975;DHT22;5028;50.974;4.968;2023-02-10T12:29:21;10.20;99.90
9975;DHT22;5028;50.974;4.968;2023-02-10T12:32:04;10.00;99.90
9975;DHT22;5028;50.974;4.968;2023-02-10T12:34:52;9.90;99.90
9975;DHT22;5028;50.974;4.968;2023-02-10T12:37:55;9.70;99.90
9975;DHT22;5028;50.974;4.968;2023-02-10T12:40:45;9.50;99.90
9975;DHT22;5028;50.974;4.968;2023-02-10T12:43:35;9.30;99.90
9975;DHT22;5028;50.974;4.968;2023-02-10T12:46:17;9.20;99.90
9975;DHT22;5028;50.974;4.968;2023-02-10T12:49:10;9.30;99.90
9975;DHT22;5028;50.974;4.968;2023-02-10T12:51:55;9.30;99.90
9975;DHT22;5028;50.974;4.968;2023-02-10T12:54:32;9.30;99.90
9975;DHT22;5028;50.974;4.968;2023-02-10T12:57:15;9.30;99.90
9975;DHT22;5028;50.974;4.968;2023-02-10T12:59:57;9.50;99.90
9975;DHT22;5028;50.974;4.968;2023-02-10T13:02:31;9.50;99.90
9975;DHT22;5028;50.974;4.968;2023-02-10T13:05:10;9.70;99.90
9975;DHT22;5028;50.974;4.968;2023-02-10T13:07:45;9.90;99.90
9975;DHT22;5028;50.974;4.968;2023-02-10T13:10:29;9.80;99.90
9975;DHT22;5028;50.974;4.968;2023-02-10T13:13:07;9.70;99.90
9975;DHT22;5028;50.974;4.968;2023-02-10T13:15:48;9.60;99.90
9975;DHT22;5028;50.974;4.968;2023-02-10T13:18:20;9.70;99.90
9975;DHT22;5028;50.974;4.968;2023-02-10T13:21:03;9.70;99.90
9975;DHT22;5028;50.974;4.968;2023-02-10T13:23:38;9.90;99.90
9975;DHT22;5028;50.974;4.968;2023-02-10T13:26:28;10.00;99.90
9975;DHT22;5028;50.974;4.968;2023-02-10T13:29:07;9.80;99.90
9975;DHT22;5028;50.974;4.968;2023-02-10T13:34:49;9.60;99.90
9975;DHT22;5028;50.974;4.968;2023-02-10T13:37:31;9.50;99.90
9975;DHT22;5028;50.974;4.968;2023-02-10T13:40:04;9.50;99.90
9975;DHT22;5028;50.974;4.968;2023-02-10T13:42:49;9.60;99.90
9975;DHT22;5028;50.974;4.968;2023-02-10T13:45:20;9.70;99.90
9975;DHT22;5028;50.974;4.968;2023-02-10T13:47:58;9.40;99.90
9975;DHT22;5028;50.974;4.968;2023-02-10T13:50:29;9.40;99.90
9975;DHT22;5028;50.974;4.968;2023-02-10T13:53:24;9.50;99.90
9975;DHT22;5028;50.974;4.968;2023-02-10T13:56:09;9.60;99.90
9975;DHT22;5028;50.974;4.968;2023-02-10T13:58:51;9.70;99.90
9975;DHT22;5028;50.974;4.968;2023-02-10T14:01:38;9.70;99.90
9975;DHT22;5028;50.974;4.968;2023-02-10T14:04:26;9.60;99.90
9975;DHT22;5028;50.974;4.968;2023-02-10T14:07:01;9.40;99.90
9975;DHT22;5028;50.974;4.968;2023-02-10T14:09:36;9.30;99.90
9975;DHT22;5028;50.974;4.968;2023-02-10T14:12:26;9.30;99.90
9975;DHT22;5028;50.974;4.968;2023-02-10T14:15:22;9.30;99.90
9975;DHT22;5028;50.974;4.968;2023-02-10T14:18:01;9.30;99.90
9975;DHT22;5028;50.974;4.968;2023-02-10T14:20:33;9.30;99.90
9975;DHT22;5028;50.974;4.968;2023-02-10T14:23:19;9.20;99.90
9975;DHT22;5028;50.974;4.968;2023-02-10T14:25:55;9.30;99.90
9975;DHT22;5028;50.974;4.968;2023-02-10T14:28:34;9.30;99.90
9975;DHT22;5028;50.974;4.968;2023-02-10T14:31:11;9.30;99.90
9975;DHT22;5028;50.974;4.968;2023-02-10T14:33:52;9.30;99.90
9975;DHT22;5028;50.974;4.968;2023-02-10T14:36:21;9.10;99.90
9975;DHT22;5028;50.974;4.968;2023-02-10T14:38:59;9.00;99.90
9975;DHT22;5028;50.974;4.968;2023-02-10T14:41:29;9.10;99.90
9975;DHT22;5028;50.974;4.968;2023-02-10T14:44:04;9.00;99.90
9975;DHT22;5028;50.974;4.968;2023-02-10T14:46:35;9.00;99.90
9975;DHT22;5028;50.974;4.968;2023-02-10T14:49:15;8.90;99.90
9975;DHT22;5028;50.974;4.968;2023-02-10T14:51:46;8.90;99.90
9975;DHT22;5028;50.974;4.968;2023-02-10T14:54:24;8.80;99.90
9975;DHT22;5028;50.974;4.968;2023-02-10T14:56:54;8.80;99.90
9975;DHT22;5028;50.974;4.968;2023-02-10T14:59:31;8.70;99.90
9975;DHT22;5028;50.974;4.968;2023-02-10T15:02:04;8.70;99.90
9975;DHT22;5028;50.974;4.968;2023-02-10T15:04:43;8.60;99.90
9975;DHT22;5028;50.974;4.968;2023-02-10T15:07:16;8.60;99.90
9975;DHT22;5028;50.974;4.968;2023-02-10T15:10:17;8.50;99.90
9975;DHT22;5028;50.974;4.968;2023-02-10T15:12:47;8.50;99.90
9975;DHT22;5028;50.974;4.968;2023-02-10T15:15:26;8.40;99.90
9975;DHT22;5028;50.974;4.968;2023-02-10T15:18:02;8.30;99.90
9975;DHT22;5028;50.974;4.968;2023-02-10T15:20:51;8.20;99.90
9975;DHT22;5028;50.974;4.968;2023-02-10T15:23:20;8.20;99.90
9975;DHT22;5028;50.974;4.968;2023-02-10T15:26:01;8.10;99.90
9975;DHT22;5028;50.974;4.968;2023-02-10T15:28:31;8.10;99.90
9975;DHT22;5028;50.974;4.968;2023-02-10T15:31:17;7.90;99.90
9975;DHT22;5028;50.974;4.968;2023-02-10T15:33:53;7.80;99.90
9975;DHT22;5028;50.974;4.968;2023-02-10T15:36:30;7.70;99.90
9975;DHT22;5028;50.974;4.968;2023-02-10T15:39:03;7.70;99.90
9975;DHT22;5028;50.974;4.968;2023-02-10T15:41:42;7.60;99.90
9975;DHT22;5028;50.974;4.968;2023-02-10T15:44:29;7.60;99.90
9975;DHT22;5028;50.974;4.968;2023-02-10T15:47:24;7.60;99.90
9975;DHT22;5028;50.974;4.968;2023-02-10T15:49:57;7.50;99.90
9975;DHT22;5028;50.974;4.968;2023-02-10T15:52:33;7.40;99.90
9975;DHT22;5028;50.974;4.968;2023-02-10T15:55:06;7.40;99.90
9975;DHT22;5028;50.974;4.968;2023-02-10T15:57:41;7.30;99.90
9975;DHT22;5028;50.974;4.968;2023-02-10T16:00:21;7.20;99.90
9975;DHT22;5028;50.974;4.968;2023-02-10T16:02:50;7.10;99.90
9975;DHT22;5028;50.974;4.968;2023-02-10T16:05:27;7.00;99.90
9975;DHT22;5028;50.974;4.968;2023-02-10T16:08:00;7.00;99.90
9975;DHT22;5028;50.974;4.968;2023-02-10T16:10:37;7.00;99.90
9975;DHT22;5028;50.974;4.968;2023-02-10T16:13:19;7.00;99.90
9975;DHT22;5028;50.974;4.968;2023-02-10T16:15:48;7.00;99.90
9975;DHT22;5028;50.974;4.968;2023-02-10T16:18:25;7.00;99.90
9975;DHT22;5028;50.974;4.968;2023-02-10T16:20:56;7.10;99.90
9975;DHT22;5028;50.974;4.968;2023-02-10T16:23:32;7.10;99.90
9975;DHT22;5028;50.974;4.968;2023-02-10T16:26:01;7.10;99.90
9975;DHT22;5028;50.974;4.968;2023-02-10T16:28:35;7.10;99.90
9975;DHT22;5028;50.974;4.968;2023-02-10T16:31:04;7.10;99.90
9975;DHT22;5028;50.974;4.968;2023-02-10T16:33:38;7.00;99.90
9975;DHT22;5028;50.974;4.968;2023-02-10T16:36:12;7.00;99.90
9975;DHT22;5028;50.974;4.968;2023-02-10T16:38:48;7.00;99.90
9975;DHT22;5028;50.974;4.968;2023-02-10T16:41:17;6.90;99.90
9975;DHT22;5028;50.974;4.968;2023-02-10T16:43:52;6.90;99.90
9975;DHT22;5028;50.974;4.968;2023-02-10T16:46:21;6.80;99.90
9975;DHT22;5028;50.974;4.968;2023-02-10T16:48:55;6.80;99.90
9975;DHT22;5028;50.974;4.968;2023-02-10T16:51:25;6.80;99.90
9975;DHT22;5028;50.974;4.968;2023-02-10T16:54:01;6.80;99.90
9975;DHT22;5028;50.974;4.968;2023-02-10T16:56:36;6.80;99.90
9975;DHT22;5028;50.974;4.968;2023-02-10T16:59:14;6.90;99.90
9975;DHT22;5028;50.974;4.968;2023-02-10T17:01:44;6.80;99.90
9975;DHT22;5028;50.974;4.968;2023-02-10T17:04:19;6.80;99.90
9975;DHT22;5028;50.974;4.968;2023-02-10T17:06:51;6.80;99.90
9975;DHT22;5028;50.974;4.968;2023-02-10T17:09:32;6.70;99.90
9975;DHT22;5028;50.974;4.968;2023-02-10T17:12:02;6.70;99.90
9975;DHT22;5028;50.974;4.968;2023-02-10T17:14:37;6.70;99.90
9975;DHT22;5028;50.974;4.968;2023-02-10T17:17:06;6.70;99.90
9975;DHT22;5028;50.974;4.968;2023-02-10T17:19:41;6.60;99.90
9975;DHT22;5028;50.974;4.968;2023-02-10T17:22:10;6.60;99.90